Date,TemperatureHighF,TemperatureAvgF,TemperatureLowF,DewpointHighF,DewpointAvgF,DewpointLowF,HumidityHigh,HumidityAvg,HumidityLow,PressureMaxIn,PressureMinIn,WindSpeedMaxMPH,WindSpeedAvgMPH,GustSpeedMaxMPH,PrecipitationSumIn
2012-1-1,36,32,30,22,21,19,71,61,49,0.00,40.00,14,8,17,0.00
2012-1-2,39,32,27,29,25,20,88,75,64,0.00,40.00,13,6,17,0.00
2012-1-3,44,38,31,36,33,28,92,80,70,0.00,40.00,13,6,15,0.00
2012-1-4,54,43,34,32,30,28,85,59,41,0.00,40.00,18,12,24,0.00
2012-1-5,44,38,29,36,28,22,88,68,50,0.00,40.00,25,15,30,0.00
2012-1-6,35,30,26,29,26,24,95,85,69,0.00,40.00,9,4,12,0.00
2012-1-7,33,30,25,30,27,23,95,89,78,0.00,40.00,9,5,12,0.00
2012-1-8,42,35,32,31,29,26,96,79,52,0.00,40.00,10,6,14,0.00
2012-1-9,44,36,30,30,28,26,84,73,55,0.00,40.00,12,7,14,0.00
2012-1-10,36,31,20,32,22,5,96,71,35,0.00,40.00,21,9,25,0.00
2012-1-11,29,22,17,18,14,7,87,71,51,0.00,40.00,8,4,9,0.00
2012-1-12,31,21,15,19,16,12,91,81,55,0.00,40.00,9,3,10,0.00
2012-1-13,34,25,17,23,20,15,91,81,60,0.00,40.00,6,3,7,0.00
2012-1-14,38,32,27,26,22,13,84,68,48,0.00,40.00,22,11,29,0.00
2012-1-15,31,24,19,23,18,14,91,77,53,0.00,40.00,13,7,20,0.00
2012-1-16,26,21,13,20,16,11,91,83,71,0.00,40.00,18,11,24,0.00
2012-1-17,32,28,22,29,18,12,96,67,55,0.00,40.00,31,20,45,0.00
2012-1-18,23,21,19,20,16,11,95,81,62,0.00,40.00,13,7,20,0.00
2012-1-19,23,21,20,21,20,18,95,91,91,0.00,40.00,5,3,159,0.00
2012-1-20,37,27,17,34,25,15,96,90,87,0.00,40.00,14,7,18,0.00
2012-1-21,39,34,28,34,30,26,92,85,75,0.00,40.00,25,17,32,0.00
2012-1-22,35,30,21,32,24,19,92,80,61,0.00,40.00,21,14,29,0.00
2012-1-23,35,28,17,32,25,15,95,89,78,0.00,40.00,18,8,22,0.00
2012-1-24,37,28,19,33,23,16,92,82,58,0.00,40.00,27,13,33,0.00
2012-1-25,39,36,32,35,30,22,92,79,54,0.00,40.00,24,16,35,0.00
2012-1-26,39,35,24,34,25,17,92,69,45,0.00,40.00,25,16,31,0.00
2012-1-27,32,26,20,25,21,17,91,81,63,0.00,40.00,14,7,18,0.00
2012-1-28,37,31,24,26,22,19,84,69,56,0.00,40.00,13,8,17,0.00
2012-1-29,41,39,37,39,30,26,96,71,59,0.00,40.00,21,15,25,0.00
2012-1-30,41,38,34,38,34,30,96,87,67,0.00,40.00,22,15,29,0.00
2012-1-31,42,36,33,33,30,28,88,80,67,0.00,40.00,10,7,14,0.00
2012-2-1,37,35,33,35,31,29,96,86,78,0.00,40.00,16,8,20,0.00
2012-2-2,40,32,28,31,28,25,96,85,57,0.00,40.00,7,4,159,0.00
2012-2-3,42,33,27,29,27,25,95,80,52,0.00,40.00,10,6,14,0.00
2012-2-4,43,34,28,28,26,24,92,75,52,0.00,40.00,10,7,15,0.00
2012-2-5,43,33,27,28,25,23,88,73,48,0.00,40.00,12,6,16,0.00
2012-2-6,45,34,26,26,24,22,88,70,45,0.00,40.00,12,7,15,0.00
2012-2-7,44,35,30,24,22,20,68,58,41,0.00,40.00,13,9,18,0.00
2012-2-8,35,33,29,32,27,21,92,80,66,0.00,40.00,9,5,14,0.00
2012-2-9,39,35,32,34,32,31,96,90,75,0.00,40.00,6,3,8,0.00
2012-2-10,41,36,32,37,34,31,96,91,85,0.00,40.00,7,4,10,0.00
2012-2-11,38,36,33,35,34,32,96,93,88,0.00,40.00,7,4,9,0.00
2012-2-12,40,36,33,35,33,31,96,89,69,0.00,40.00,9,6,12,0.00
2012-2-13,42,36,30,35,32,29,96,86,62,0.00,40.00,13,6,15,0.00
2012-2-14,33,31,27,31,29,26,96,92,88,0.00,40.00,10,4,13,0.00
2012-2-15,35,31,28,29,26,22,96,83,58,0.00,40.00,10,5,12,0.00
2012-2-16,35,30,26,30,26,23,92,85,69,0.00,40.00,12,8,15,0.00
2012-2-17,40,33,26,34,30,24,96,88,78,0.00,40.00,14,7,20,0.00
2012-2-18,40,35,32,33,29,25,96,78,59,0.00,40.00,28,19,35,0.00
2012-2-19,40,33,29,30,26,22,92,75,50,0.00,40.00,20,14,25,0.00
2012-2-20,34,31,29,31,28,23,96,87,74,0.00,40.00,9,6,159,0.00
2012-2-21,48,40,32,42,36,31,96,87,73,0.00,40.00,23,13,28,0.00
2012-2-22,48,41,31,39,30,19,89,65,32,0.00,40.00,36,22,46,0.00
2012-2-23,39,32,26,28,24,20,92,76,47,0.00,40.00,15,8,21,0.00
2012-2-24,42,35,29,29,25,20,88,67,44,0.00,40.00,16,11,20,0.00
2012-2-25,38,33,28,35,27,18,96,79,53,0.00,40.00,32,20,40,0.00
2012-2-26,32,27,20,25,22,18,91,81,63,0.00,40.00,21,11,25,0.00
2012-2-27,35,23,13,22,17,11,95,79,51,0.00,40.00,8,4,10,0.00
2012-2-28,31,24,10,22,18,8,91,78,63,0.00,40.00,18,8,25,0.00
2012-2-29,36,32,29,32,25,21,96,76,56,0.00,40.00,21,16,29,0.00
2012-3-1,38,30,23,26,22,17,92,71,43,0.00,40.00,17,11,24,0.00
2012-3-2,37,30,23,29,24,17,92,76,54,0.00,40.00,20,11,23,0.00
2012-3-3,43,38,34,35,33,30,92,83,70,0.00,40.00,18,14,24,0.00
2012-3-4,53,42,34,37,33,30,92,74,41,0.00,40.00,17,11,22,0.00
2012-3-5,46,41,31,35,28,16,76,61,45,0.00,40.00,33,19,43,0.00
2012-3-6,38,30,23,20,16,13,84,58,36,0.00,40.00,17,9,22,0.00
2012-3-7,41,30,21,23,18,15,80,62,37,0.00,40.00,13,7,17,0.00
2012-3-8,54,39,29,31,26,22,77,60,36,0.00,40.00,12,7,15,0.00
2012-3-9,61,49,37,32,29,26,69,47,29,0.00,40.00,22,14,30,0.00
2012-3-10,51,45,37,34,31,27,70,59,51,0.00,40.00,24,11,29,0.00
2012-3-11,43,38,33,38,33,23,92,79,61,0.00,40.00,25,11,32,0.00
2012-3-12,41,34,28,36,28,21,88,77,56,0.00,40.00,22,16,28,0.00
2012-3-13,45,38,30,37,31,19,96,76,48,0.00,40.00,32,20,48,0.00
2012-3-14,42,34,27,37,28,21,92,77,57,0.00,40.00,17,11,22,0.00
2012-3-15,49,44,40,44,41,36,96,86,76,0.00,40.00,21,16,27,0.00
2012-3-16,45,41,33,40,33,23,96,75,43,0.00,40.00,24,14,35,0.00
2012-3-17,43,38,32,36,30,23,92,71,52,0.00,40.00,22,11,27,0.00
2012-3-18,43,34,27,30,26,22,95,76,50,0.00,40.00,9,5,12,0.00
2012-3-19,38,32,26,27,22,14,92,69,36,0.00,40.00,17,12,22,0.00
2012-3-20,45,37,31,34,29,20,96,73,53,0.00,40.00,36,20,48,0.00
2012-3-21,34,33,32,33,31,30,96,94,88,0.00,40.00,21,10,28,0.00
2012-3-22,39,33,31,32,30,26,96,88,59,0.00,40.00,15,7,20,0.00
2012-3-23,44,35,29,32,29,26,92,79,48,0.00,40.00,9,4,10,0.00
2012-3-24,48,39,31,31,29,28,92,70,47,0.00,40.00,17,9,21,0.00
2012-3-25,64,48,35,40,32,27,85,57,33,0.00,40.00,18,8,24,0.00
2012-3-26,45,40,34,40,36,27,96,84,64,0.00,40.00,16,10,27,0.00
2012-3-27,49,41,33,40,34,30,92,76,58,0.00,40.00,13,8,20,0.00
2012-3-28,50,44,40,40,35,28,92,73,42,0.00,40.00,22,-72,29,0.00
2012-3-29,41,41,41,34,34,34,75,75,75,0.00,40.00,0,-999,0,0.00
2012-3-30,41,41,41,34,34,34,75,75,75,0.00,40.00,0,-999,0,0.00
2012-3-31,41,41,41,34,34,34,75,75,75,0.00,40.00,0,-999,0,0.00
2012-4-1,41,41,41,34,34,34,75,75,75,0.00,40.00,0,-999,0,0.00
2012-4-2,41,41,41,34,34,34,75,75,75,0.00,40.00,0,-999,0,0.00
2012-4-3,41,41,41,34,34,34,75,75,75,0.00,40.00,0,-999,0,0.00
2012-4-4,41,41,41,34,34,34,75,75,75,0.00,40.00,0,-999,0,0.00
2012-4-5,41,41,41,34,34,34,75,75,75,0.00,40.00,0,-999,0,0.00
2012-4-6,41,41,41,34,34,34,75,75,75,0.00,40.00,0,-999,0,0.00
2012-4-7,41,41,41,34,34,34,75,75,75,0.00,40.00,0,-999,0,0.00
2012-4-8,41,41,41,34,34,34,75,75,75,0.00,40.00,0,-999,0,0.00
2012-4-9,41,41,41,34,34,34,75,75,75,0.00,40.00,0,-999,0,0.00
2012-4-10,41,41,41,34,34,34,75,75,75,0.00,40.00,0,-999,0,0.00
2012-4-11,41,41,41,34,34,34,75,75,75,0.00,40.00,0,-999,0,0.00
2012-4-12,41,41,41,34,34,34,75,75,75,0.00,40.00,0,-999,0,0.00
2012-4-13,41,41,41,34,34,34,75,75,75,0.00,40.00,0,-999,0,0.00
2012-4-14,41,40,41,34,30,-100,75,75,75,0.00,40.00,0,-999,0,0.00
2012-4-15,41,41,41,34,34,34,75,75,75,0.00,40.00,0,-999,0,0.00
2012-4-16,41,41,41,34,34,34,75,75,75,0.00,40.00,0,-999,0,0.00
2012-4-17,41,41,41,34,34,34,75,75,75,0.00,40.00,0,-999,0,0.00
2012-4-18,41,41,41,34,34,34,75,75,75,0.00,40.00,0,-999,0,0.00
2012-4-20,41,41,41,34,34,34,75,75,75,0.00,40.00,0,-999,0,0.00
2012-4-21,41,41,41,34,34,34,75,75,75,0.00,40.00,0,-999,0,0.00
2012-4-22,41,41,41,34,34,34,75,75,75,0.00,40.00,0,-999,0,0.00
2012-4-23,41,41,41,34,34,34,75,75,75,0.00,40.00,0,-999,0,0.00
2012-4-24,41,41,41,34,34,34,75,75,75,0.00,40.00,0,-999,0,0.00
2012-4-25,41,41,41,34,34,34,75,75,75,0.00,40.00,0,-999,0,0.00
2012-4-26,41,41,41,34,34,34,75,75,75,0.00,40.00,0,-999,0,0.00
2012-4-27,51,44,38,34,32,29,75,64,42,0.00,40.00,20,-480,27,0.00
2012-4-28,56,44,33,36,29,-100,92,64,39,0.00,40.00,10,7,15,0.00
2012-4-29,62,49,39,43,39,35,85,69,44,0.00,40.00,15,8,22,0.00
2012-4-30,55,49,44,45,41,32,96,73,51,0.00,40.00,27,15,32,0.00
2012-5-1,50,42,36,35,32,29,88,68,47,0.00,40.00,22,15,28,0.00
2012-5-2,50,42,36,35,32,26,92,71,40,0.00,40.00,16,12,22,0.00
2012-5-3,51,44,40,46,38,31,89,78,67,0.00,40.00,18,11,22,0.00
2012-5-4,49,44,38,40,36,33,92,74,53,0.00,40.00,22,15,28,0.00
2012-5-5,52,42,34,34,28,-100,96,66,38,0.00,40.00,24,16,29,0.00
2012-5-6,61,46,32,34,30,28,85,57,31,0.00,40.00,10,5,13,0.00
2012-5-7,68,53,38,38,33,30,82,51,26,0.00,40.00,12,4,159,0.00
2012-5-8,73,58,43,44,39,36,79,53,26,0.00,40.00,10,6,15,0.00
2012-5-9,61,52,44,44,33,18,82,52,25,0.00,40.00,28,17,37,0.00
2012-5-10,57,43,29,26,21,16,74,43,24,0.00,40.00,15,9,25,0.00
2012-5-11,63,47,30,31,26,23,78,48,25,0.00,40.00,9,4,13,0.00
2012-5-12,72,50,34,37,29,-100,81,52,24,0.00,40.00,5,3,13,0.00
2012-5-13,79,61,42,41,37,34,73,45,22,0.00,40.00,13,4,17,0.00
2012-5-14,85,67,51,47,42,37,58,42,24,0.00,40.00,17,7,20,0.00
2012-5-15,87,68,52,50,45,41,68,46,25,0.00,40.00,12,5,15,0.00
2012-5-16,75,62,49,45,40,32,73,46,26,0.00,40.00,17,10,24,0.00
2012-5-17,65,55,43,42,37,29,82,53,32,0.00,40.00,15,11,24,0.00
2012-5-18,67,51,33,35,30,26,78,47,26,0.00,40.00,14,9,20,0.00
2012-5-19,66,52,41,38,30,-100,67,48,29,0.00,40.00,12,7,17,0.00
2012-5-20,69,59,47,47,41,35,73,52,34,0.00,40.00,16,7,29,0.00
2012-5-21,65,56,52,55,51,48,92,83,62,0.00,40.00,20,11,25,0.00
2012-5-22,56,50,46,49,41,33,92,72,43,0.00,40.00,25,17,32,0.00
2012-5-23,52,46,40,44,39,38,92,78,60,0.00,40.00,24,16,29,0.00
2012-5-24,58,49,40,40,36,33,92,65,40,0.00,40.00,15,8,20,0.00
2012-5-25,64,54,45,38,31,27,70,44,27,0.00,40.00,23,17,32,0.00
2012-5-26,61,54,47,33,31,28,58,42,33,0.00,40.00,18,11,25,0.00
2012-5-27,68,53,37,41,37,33,85,58,30,0.00,40.00,14,6,20,0.00
2012-5-28,66,56,43,43,39,35,82,55,35,0.00,40.00,16,11,21,0.00
2012-5-29,58,52,45,49,41,35,92,70,43,0.00,40.00,18,12,23,0.00
2012-5-30,69,61,51,44,37,33,68,41,29,0.00,40.00,17,11,22,0.00
2012-5-31,63,58,53,55,49,43,89,72,62,0.00,40.00,17,11,22,0.00
2012-6-1,75,63,53,55,51,48,92,68,39,0.00,40.00,15,10,20,0.00
2012-6-2,65,57,52,53,45,-100,92,69,44,0.00,40.00,20,13,28,0.00
2012-6-3,64,57,49,50,43,37,86,61,42,0.00,40.00,10,6,14,0.00
2012-6-4,72,59,53,55,51,45,93,77,39,0.00,40.00,20,8,27,0.00
2012-6-5,53,47,44,51,44,41,96,89,76,0.00,40.00,20,15,25,0.00
2012-6-6,52,45,40,42,36,32,85,71,46,0.00,40.00,23,16,29,0.00
2012-6-7,62,48,38,46,39,32,92,73,39,0.00,40.00,18,8,22,0.00
2012-6-8,56,49,44,46,39,31,96,70,38,0.00,40.00,15,10,21,0.00
2012-6-9,49,44,38,45,40,36,96,86,70,0.00,40.00,20,15,28,0.00
2012-6-10,62,52,43,46,41,39,85,68,44,0.00,40.00,20,14,25,0.00
2012-6-11,73,60,49,48,44,40,86,59,30,0.00,40.00,10,6,14,0.00
2012-6-12,71,60,50,53,47,45,86,65,42,0.00,40.00,17,7,21,0.00
2012-6-13,66,57,48,51,47,39,89,70,37,0.00,40.00,20,12,24,0.00
2012-6-14,66,55,42,42,40,37,85,59,36,0.00,40.00,12,8,17,0.00
2012-6-15,72,56,40,44,39,35,89,56,28,0.00,40.00,10,4,15,0.00
2012-6-16,75,59,46,52,40,-100,82,57,33,0.00,40.00,15,8,21,0.00
2012-6-17,73,64,56,57,46,36,92,56,29,0.00,40.00,24,15,35,0.00
2012-6-18,62,53,46,44,41,38,85,65,40,0.00,40.00,22,14,29,0.00
2012-6-19,62,53,42,42,39,36,92,62,39,0.00,40.00,17,11,21,0.00
2012-6-20,73,61,42,44,40,38,85,50,28,0.00,40.00,9,6,15,0.00
2012-6-21,85,65,55,51,46,41,69,53,26,0.00,40.00,8,6,12,0.00
2012-6-22,78,71,56,56,54,51,92,56,44,0.00,40.00,16,9,25,0.00
2012-6-23,72,61,55,54,50,44,92,70,36,0.00,40.00,12,5,20,0.00
2012-6-24,74,60,51,52,47,39,89,66,31,0.00,40.00,12,6,15,0.00
2012-6-25,77,64,56,50,46,41,80,54,30,0.00,40.00,16,7,21,0.00
2012-6-26,59,51,47,50,46,40,96,82,68,0.00,40.00,22,14,32,0.00
2012-6-27,67,57,47,45,42,39,89,62,37,0.00,40.00,10,6,13,0.00
2012-6-28,83,65,49,54,47,42,89,56,26,0.00,40.00,9,5,13,0.00
2012-6-29,74,66,57,56,51,47,77,61,46,0.00,40.00,13,8,18,0.00
2012-6-30,76,67,57,60,55,53,89,68,46,0.00,40.00,10,6,13,0.00
2012-7-1,73,64,57,57,54,50,93,72,44,0.00,40.00,15,9,23,0.00
2012-7-2,78,63,50,53,40,-100,89,52,37,0.00,40.00,8,-48,14,0.00
2012-7-3,65,58,49,52,44,33,79,60,31,0.00,40.00,23,15,31,0.00
2012-7-4,71,56,39,44,38,35,92,55,27,0.00,40.00,7,4,10,0.00
2012-7-5,78,62,44,47,43,40,89,56,27,0.00,40.00,9,3,14,0.00
2012-7-6,86,68,52,49,47,44,83,51,25,0.00,40.00,7,5,14,0.00
2012-7-7,93,74,54,62,53,47,77,52,25,0.00,40.00,10,5,15,0.00
2012-7-8,96,76,61,60,57,54,83,55,27,0.00,40.00,12,5,22,0.00
2012-7-9,87,77,66,61,58,54,65,53,40,0.00,40.00,15,8,25,0.00
2012-7-10,91,78,62,64,59,56,86,55,35,0.00,40.00,10,5,15,0.00
2012-7-11,91,76,63,62,59,55,93,59,29,0.00,40.00,6,4,10,0.00
2012-7-12,93,78,62,59,56,53,86,51,26,0.00,40.00,8,5,12,0.00
2012-7-13,88,75,61,62,59,55,86,59,37,0.00,40.00,9,6,14,0.00
2012-7-14,86,75,68,65,61,56,87,63,39,0.00,40.00,14,6,21,0.00
2012-7-15,79,69,62,60,58,51,89,69,45,0.00,40.00,15,9,24,0.00
2012-7-16,88,70,54,60,56,44,89,61,37,0.00,40.00,15,6,21,0.00
2012-7-17,85,71,62,60,58,53,93,67,37,0.00,40.00,12,5,15,0.00
2012-7-18,89,74,60,61,57,53,89,60,30,0.00,40.00,9,5,15,0.00
2012-7-19,92,76,62,61,57,53,89,57,28,0.00,40.00,15,6,20,0.00
2012-7-20,81,68,58,62,49,-100,89,58,43,0.00,40.00,14,-40,24,0.00
2012-7-21,81,65,51,55,51,48,92,64,33,0.00,40.00,9,4,13,0.00
2012-7-22,86,72,56,55,51,40,86,52,30,0.00,40.00,14,6,20,0.00
2012-7-23,70,59,48,44,41,35,82,53,33,0.00,40.00,15,11,21,0.00
2012-7-24,82,65,47,49,45,41,79,52,30,0.00,40.00,12,5,15,0.00
2012-7-25,86,70,55,52,51,49,86,54,29,0.00,40.00,6,3,13,0.00
2012-7-26,89,74,59,56,54,51,86,55,28,0.00,40.00,7,4,13,0.00
2012-7-27,88,73,58,57,53,43,86,53,26,0.00,40.00,12,6,18,0.00
2012-7-28,83,68,52,50,45,40,86,48,23,0.00,40.00,13,6,15,0.00
2012-7-29,87,68,50,50,46,40,86,49,26,0.00,40.00,7,4,10,0.00
2012-7-30,84,68,53,52,49,43,89,55,29,0.00,40.00,12,7,18,0.00
2012-7-31,85,75,58,48,44,39,51,34,23,0.00,40.00,12,6,20,0.00
2012-8-1,86,69,51,50,45,38,68,45,25,0.00,40.00,12,7,20,0.00
2012-8-2,80,73,64,51,49,43,58,42,36,0.00,40.00,13,9,18,0.00
2012-8-3,82,68,49,47,43,38,66,43,26,0.00,40.00,12,5,15,0.00
2012-8-4,88,71,54,53,50,43,77,50,30,0.00,40.00,10,5,17,0.00
2012-8-5,80,64,57,57,53,48,77,67,45,0.00,40.00,7,4,10,0.00
2012-8-6,92,81,69,59,57,55,63,45,33,0.00,40.00,13,7,17,0.00
2012-8-7,94,74,62,61,56,47,80,56,23,0.00,40.00,15,6,20,0.00
2012-8-8,87,75,62,57,52,41,72,46,27,0.00,40.00,16,9,21,0.00
2012-8-9,89,71,53,51,45,39,58,41,25,0.00,40.00,7,4,9,0.00
2012-8-10,90,72,52,53,48,40,83,47,24,0.00,40.00,12,4,15,0.00
2012-8-11,90,68,51,55,42,-100,63,44,25,0.00,40.00,6,4,12,0.00
2012-8-12,92,75,61,56,50,43,64,44,26,0.00,40.00,9,4,15,0.00
2012-8-13,94,76,56,55,50,39,69,42,24,0.00,40.00,12,6,20,0.00
2012-8-14,91,73,55,55,47,37,56,39,29,0.00,40.00,13,7,21,0.00
2012-8-15,81,76,68,55,52,47,50,43,37,0.00,40.00,17,14,24,0.00
2012-8-16,88,71,58,54,48,38,64,46,26,0.00,40.00,12,7,15,0.00
2012-8-17,93,72,53,53,48,38,80,46,24,0.00,40.00,9,5,14,0.00
2012-8-18,95,77,60,57,51,44,66,42,25,0.00,40.00,9,4,14,0.00
2012-8-19,98,78,61,58,51,44,67,41,25,0.00,40.00,9,4,9,0.00
2012-8-20,92,74,58,51,47,43,64,41,24,0.00,40.00,10,6,18,0.00
2012-8-21,80,69,60,61,52,42,89,56,37,0.00,40.00,18,8,159,0.00
2012-8-22,77,64,49,58,45,38,86,55,31,0.00,40.00,12,7,15,0.00
2012-8-23,74,60,47,48,42,34,76,52,30,0.00,40.00,16,9,23,0.00
2012-8-24,73,57,45,40,37,31,73,48,29,0.00,40.00,18,10,23,0.00
2012-8-25,78,61,45,44,39,31,79,48,27,0.00,40.00,10,6,17,0.00
2012-8-26,87,69,52,48,43,34,77,43,20,0.00,40.00,13,6,17,0.00
2012-8-27,83,66,52,50,43,38,66,45,29,0.00,40.00,14,7,15,0.00
2012-8-28,80,66,49,48,45,38,74,49,32,0.00,40.00,14,6,21,0.00
2012-8-29,71,60,46,44,41,36,85,50,35,0.00,40.00,14,9,18,0.00
2012-8-30,78,60,45,44,39,29,89,50,24,0.00,40.00,10,5,17,0.00
2012-8-31,82,65,51,46,41,32,68,44,25,0.00,40.00,13,6,17,0.00
2012-9-1,74,60,45,42,38,28,76,47,27,0.00,40.00,14,10,21,0.00
2012-9-2,74,58,44,45,36,28,56,45,31,0.00,40.00,15,9,22,0.00
2012-9-3,78,61,42,44,38,31,79,46,28,0.00,40.00,14,7,18,0.00
2012-9-4,79,62,44,47,41,35,73,47,31,0.00,40.00,9,5,21,0.00
2012-9-5,80,63,43,48,42,34,79,49,29,0.00,40.00,17,4,29,0.00
2012-9-6,73,62,52,48,46,42,79,57,38,0.00,40.00,17,11,22,0.00
2012-9-7,83,64,49,48,44,33,89,53,26,0.00,40.00,9,4,12,0.00
2012-9-10,65,59,48,47,36,27,79,45,27,0.00,40.00,29,19,36,0.00
2012-9-11,65,49,32,35,29,22,81,49,29,0.00,40.00,12,5,15,0.00
2012-9-12,70,52,34,38,30,21,72,45,28,0.00,40.00,7,4,12,0.00
2012-9-13,81,61,45,42,37,28,73,44,22,0.00,40.00,12,5,15,0.00
2012-9-14,86,65,52,45,39,30,58,40,21,0.00,40.00,10,5,15,0.00
2012-9-15,83,65,51,47,39,31,54,39,27,0.00,40.00,12,6,17,0.00
2012-9-16,82,61,43,49,39,29,73,48,25,0.00,40.00,7,4,14,0.00
2012-9-17,82,62,42,45,38,28,70,43,26,0.00,40.00,7,3,10,0.00
2012-9-18,83,72,54,45,40,32,49,32,25,0.00,40.00,7,4,13,0.00
2012-9-19,82,64,52,47,41,32,63,44,29,0.00,40.00,9,6,15,0.00
2012-9-20,87,66,52,50,43,35,61,45,26,0.00,40.00,7,4,13,0.00
2012-9-21,86,67,52,54,46,35,63,48,32,0.00,40.00,12,4,15,0.00
2012-9-22,82,61,49,53,43,-100,71,56,36,0.00,40.00,10,4,13,0.00
2012-9-23,69,58,49,47,45,41,82,62,45,0.00,40.00,8,5,12,0.00
2012-9-24,75,58,46,49,44,41,89,63,39,0.00,40.00,7,5,12,0.00
2012-9-25,73,58,47,50,46,41,92,66,42,0.00,40.00,13,7,15,0.00
2012-9-26,75,57,43,46,42,36,96,63,32,0.00,40.00,6,3,10,0.00
2012-9-27,78,59,44,47,43,36,82,58,30,0.00,40.00,7,3,12,0.00
2012-9-28,77,60,50,44,41,36,71,51,28,0.00,40.00,10,5,15,0.00
2012-9-29,76,61,50,49,43,36,63,51,38,0.00,40.00,14,7,18,0.00
2012-9-30,75,58,44,45,38,26,89,53,22,0.00,40.00,10,6,14,0.00
2012-10-1,74,58,44,40,35,26,70,44,28,0.00,40.00,15,8,18,0.00
2012-10-2,69,55,42,45,34,16,82,48,27,0.00,40.00,24,10,32,0.00
2012-10-3,58,45,31,33,27,16,88,52,34,0.00,40.00,10,7,17,0.00
2012-10-4,55,44,36,32,26,16,69,50,29,0.00,40.00,17,9,22,0.00
2012-10-5,57,44,29,31,24,15,84,48,28,0.00,40.00,13,6,21,0.00
2012-10-6,62,44,31,32,25,15,69,47,29,0.00,40.00,9,4,16,0.00
2012-10-7,67,49,34,33,28,19,78,47,27,0.00,40.00,12,5,14,0.00
2012-10-8,69,51,36,36,29,23,75,46,27,0.00,40.00,12,6,14,0.00
2012-10-9,69,50,37,39,31,24,72,48,33,0.00,40.00,7,3,9,0.00
2012-10-10,70,51,39,40,35,29,85,57,33,0.00,40.00,12,5,17,0.00
2012-10-11,72,55,41,42,38,30,79,55,32,0.00,40.00,8,3,13,0.00
2012-10-12,64,51,38,45,38,31,88,65,41,0.00,40.00,15,10,27,0.00
2012-10-13,58,51,48,49,47,44,96,85,64,0.00,40.00,17,12,21,0.00
2012-10-14,65,56,49,50,45,38,89,69,36,0.00,40.00,23,13,29,0.00
2012-10-15,62,55,53,52,50,46,92,82,55,0.00,40.00,22,15,28,0.00
2012-10-16,58,53,42,55,36,22,89,57,28,0.00,40.00,33,24,44,0.00
2012-10-17,52,41,32,35,30,25,92,67,36,0.00,40.00,18,8,21,0.00
2012-10-18,63,53,38,32,27,24,78,39,22,0.00,40.00,12,8,15,0.00
2012-10-19,60,54,48,49,42,30,89,63,42,0.00,40.00,29,18,36,0.00
2012-10-20,51,43,32,48,30,19,89,63,30,0.00,40.00,22,15,32,0.00
2012-10-21,46,37,29,31,28,25,92,71,43,0.00,40.00,17,8,21,0.00
2012-10-22,43,37,32,37,32,28,92,83,55,0.00,40.00,17,10,21,0.00
2012-10-23,42,36,32,34,32,29,92,83,67,0.00,40.00,14,8,18,0.00
2012-10-24,44,36,31,35,31,28,96,82,53,0.00,40.00,12,8,15,0.00
2012-10-25,42,36,31,34,32,29,96,84,64,0.00,40.00,10,6,13,0.00
2012-10-26,38,34,31,34,32,28,92,89,75,0.00,40.00,12,6,14,0.00
2012-10-27,42,40,36,40,37,34,96,91,85,0.00,40.00,15,9,21,0.00
2012-10-28,52,48,41,47,45,39,96,88,76,0.00,40.00,18,10,25,0.00
2012-10-29,60,52,44,50,46,40,92,78,57,0.00,40.00,28,16,36,0.00
2012-10-30,57,50,46,50,45,41,92,81,61,0.00,40.00,17,8,21,0.00
2012-10-31,60,54,51,48,46,41,89,74,57,0.00,40.00,14,10,18,0.00
2012-11-1,56,47,42,47,42,38,92,82,50,0.00,40.00,18,8,23,0.00
2012-11-2,56,48,45,44,41,37,92,77,48,0.00,40.00,12,6,14,0.00
2012-11-3,52,48,43,47,44,39,92,85,76,0.00,40.00,14,10,18,0.00
2012-11-4,57,52,46,48,46,44,96,81,66,0.00,40.00,14,8,18,0.00
2012-11-5,58,52,41,51,46,39,92,82,61,0.00,40.00,21,9,27,0.00
2012-11-6,65,56,48,49,46,42,92,71,43,0.00,40.00,14,8,17,0.00
2012-11-7,51,43,33,48,34,23,92,71,35,0.00,40.00,16,11,21,0.00
2012-11-8,41,34,27,31,28,25,96,81,52,0.00,40.00,10,7,17,0.00
2012-11-9,33,32,30,32,30,28,96,93,88,0.00,40.00,6,3,8,0.00
2012-11-10,32,26,20,21,18,16,84,74,55,0.00,40.00,7,4,9,0.00
2012-11-11,33,30,22,27,25,18,91,81,69,0.00,40.00,12,7,14,0.00
2012-11-12,32,32,31,29,28,26,92,86,78,0.00,40.00,14,10,20,0.00
2012-11-14,36,36,36,34,34,34,92,92,92,0.00,40.00,5,3,159,0.00
2012-11-15,42,37,35,34,34,33,96,87,73,0.00,40.00,13,6,15,0.00
2012-11-16,47,38,34,38,34,32,92,85,65,0.00,40.00,9,3,13,0.00
2012-11-17,49,43,37,41,36,33,85,77,65,0.00,40.00,15,11,18,0.00
2012-11-29,48,47,47,37,36,34,68,63,58,0.00,40.00,14,12,21,0.00
2012-11-30,48,45,41,42,40,37,92,82,70,0.00,40.00,20,11,22,0.00
2012-12-1,47,44,39,41,35,26,89,72,43,0.00,40.00,27,15,33,0.00
2012-12-2,44,40,37,41,35,30,96,82,67,0.00,40.00,27,18,35,0.00
2012-12-3,47,42,37,33,31,29,75,66,53,0.00,40.00,25,16,32,0.00
2012-12-4,47,44,38,42,40,33,92,84,75,0.00,40.00,23,17,28,0.00
2012-12-5,47,40,33,45,29,22,92,67,44,0.00,40.00,25,15,32,0.00
2012-12-6,35,33,32,32,30,28,92,85,81,0.00,40.00,18,12,24,0.00
2012-12-7,39,34,31,33,30,23,96,85,69,0.00,40.00,29,16,35,0.00
2012-12-8,35,28,22,23,19,12,84,70,38,0.00,40.00,13,6,17,0.00
2012-12-9,30,25,17,28,22,13,95,88,83,0.00,40.00,12,6,15,0.00
2012-12-10,34,32,30,33,29,28,96,91,88,0.00,40.00,10,6,15,0.00
2012-12-11,37,34,33,33,30,27,96,85,69,0.00,40.00,12,8,17,0.00
2012-12-12,33,33,32,32,31,30,96,93,92,0.00,40.00,13,6,17,0.00
2012-12-13,33,32,31,30,29,28,92,89,81,0.00,40.00,10,6,13,0.00
2012-12-14,31,28,26,28,25,23,92,88,81,0.00,40.00,7,5,10,0.00
2012-12-15,33,30,28,29,26,25,92,87,75,0.00,40.00,16,6,21,0.00
2012-12-16,33,30,28,29,27,24,92,87,72,0.00,40.00,21,17,29,0.00
2012-12-18,31,31,31,22,22,22,68,68,68,0.00,40.00,14,14,18,0.00
2012-12-19,31,30,28,26,22,15,92,73,51,0.00,40.00,30,20,38,0.00
2012-12-20,41,35,30,28,22,18,88,59,39,0.00,40.00,32,21,40,0.00
2012-12-21,37,35,33,31,31,28,92,84,69,0.00,40.00,13,6,18,0.00
2012-12-27,31,29,28,27,26,26,92,89,81,0.00,40.00,7,5,8,0.00
2012-12-28,36,28,20,28,25,18,95,88,69,0.00,40.00,6,3,9,0.00
2012-12-29,25,22,18,23,20,15,91,90,87,0.00,40.00,5,2,6,0.00
2012-12-30,25,22,17,22,19,14,91,89,87,0.00,40.00,6,2,7,0.00
2012-12-31,29,22,7,27,20,3,92,90,83,0.00,40.00,5,2,6,0.00
2013-1-1,24,20,11,21,17,7,91,88,83,0.00,40.00,5,2,6,0.00